Главная страница
METAR-TAF:

METAR-TAF

Аэропорты :

Карлстад, Швеция

широта: 59-26-41N, долгота: 013-20-15E, высота над уровнем моря: 107 м

Текущие метеонаблюдения

Эта сводка был подготовлена 34 минут назад, в 23:50 UTC
Ветер 7 Узел от южный-юго-западный
Температура 2°C
Влажность 87%
Давление 996 hPa
Видимость 10 км и более

METAR: ESOK 182350Z AUTO 21007KT 9999 FEW020/// 02/00 Q0996

Время: 01:24 (00:24 UTC)

Прогноз

Эта сводка был подготовлена 9 часа и 54 минут назад, в 14:30 UTC
Прогноз действительный с 18-го 15 UTC до 18-го 19 UTC
Ветер 14 Узел от юго-западный с порывами до 25 Узел
Видимость 10 км и более
Отдельные облака на высоте 4000 фута

TAF: ESOK 181430Z 1815/1819 23014G25KT 9999 SCT040

Метеонаблюдения и прогнозы для более 4000 аэропортов (сводки METAR и TAF).

Имеющиеся станции представлены на карте желтыми и красными точками.

Чтобы увидеть название станции, наведите на нее мышь.

Затем щелкните, чтобы увидеть метеонаблюдения и метеопрогнозы.

Управление картой: чтобы увеличить масштаб, щелкните зеленые кнопки с черным крестиком; чтобы уменьшить масштаб, щелкните зеленую кнопку с тире; для просмотра соседних карт щелкайте зеленые стрелки.


METAR-TAF: